Time;durP1;ratioP1;P1;durP2;ratioP2;P2;SDS_P1;SDS_P2;PMS_P1;PMS_P2;Temp;Humidity;BMP_temperature;BMP_pressure;BME280_temperature;BME280_humidity;BME280_pressure;Samples;Min_cycle;Max_cycle;Signal;HPM_P1;HPM_P2
2022/03/14 00:01:46;220983.00;0.74;382.03;0.00;0.00;0.62;;;;;14.10;1.00;;;;;;2264315;61;1986;-88
2022/03/14 00:04:13;155977.00;0.52;270.11;0.00;0.00;0.62;;;;;14.40;1.00;;;;;;2264331;61;1374;-88
2022/03/14 00:06:43;6531.00;0.02;11.94;0.00;0.00;0.62;;;;;14.90;1.00;;;;;;2264351;61;1096;-88
2022/03/14 00:09:10;83791.00;0.28;145.59;0.00;0.00;0.62;;;;;15.00;1.00;;;;;;2264285;61;1190;-89
2022/03/14 00:11:38;362313.00;1.21;625.02;29643.00;0.10;51.97;;;;;15.20;1.00;;;;;;2264225;61;1401;-89
2022/03/14 00:14:07;52347.00;0.17;91.24;0.00;0.00;0.62;;;;;15.30;1.00;;;;;;2264337;61;1407;-89
2022/03/14 00:16:38;263910.00;0.88;455.87;47844.00;0.16;83.46;;;;;14.80;1.00;;;;;;2264259;61;1232;-89
2022/03/14 00:19:06;59519.00;0.20;103.65;0.00;0.00;0.62;;;;;14.40;1.00;;;;;;2264325;61;1236;-87
2022/03/14 00:21:38;158608.00;0.53;274.64;0.00;0.00;0.62;;;;;14.40;1.00;;;;;;2264259;61;2003;-87
2022/03/14 00:24:09;80325.00;0.27;139.60;0.00;0.00;0.62;;;;;14.20;1.00;;;;;;2264216;61;1589;-89
2022/03/14 00:26:37;54193.00;0.18;94.44;0.00;0.00;0.62;;;;;14.10;1.00;;;;;;2264329;61;1071;-90
2022/03/14 00:29:06;180485.00;0.60;312.32;0.00;0.00;0.62;;;;;14.00;1.00;;;;;;2264192;61;1419;-87
2022/03/14 00:31:36;534154.00;1.78;920.65;57175.00;0.19;99.59;;;;;14.60;1.00;;;;;;2264269;61;992;-88
2022/03/14 00:34:03;1552075.00;5.17;2741.50;172200.00;0.57;298.06;;;;;14.50;1.00;;;;;;2264007;61;1468;-87
2022/03/14 00:36:30;1277542.00;4.26;2231.06;85686.00;0.29;148.86;;;;;14.90;1.00;;;;;;2264317;61;1029;-87
2022/03/14 00:38:57;1117594.00;3.73;1941.92;86282.00;0.29;149.89;;;;;14.60;1.00;;;;;;2264232;61;912;-87
2022/03/14 00:41:27;1691977.00;5.64;3009.85;76719.00;0.26;133.37;;;;;14.60;1.00;;;;;;2264334;61;1052;-88
2022/03/14 00:43:54;1244345.00;4.15;2170.60;49559.00;0.17;86.42;;;;;14.60;1.00;;;;;;2264175;61;1940;-88
2022/03/14 00:46:24;1648323.00;5.49;2925.45;98809.00;0.33;171.52;;;;;14.80;1.00;;;;;;2264006;61;1349;-87
2022/03/14 00:48:53;1601732.00;5.34;2836.05;117982.00;0.39;204.60;;;;;14.60;1.00;;;;;;2260237;61;1082;-88
2022/03/14 00:51:20;1109630.00;3.70;1927.65;33812.00;0.11;59.18;;;;;14.00;1.00;;;;;;2260136;61;2196;-88
2022/03/14 00:53:47;1303952.00;4.35;2279.34;108140.00;0.36;187.62;;;;;13.90;1.00;;;;;;2260148;61;1234;-88
2022/03/14 00:56:14;1746917.00;5.82;3116.95;163714.00;0.55;283.44;;;;;14.10;1.00;;;;;;2260184;61;1340;-88
2022/03/14 00:58:43;986819.00;3.29;1709.14;126318.00;0.42;218.98;;;;;14.10;1.00;;;;;;2260243;61;1080;-90
2022/03/14 01:01:10;1178223.00;3.93;2050.90;126702.00;0.42;219.64;;;;;14.30;1.00;;;;;;2260127;61;1984;-88
2022/03/14 01:03:37;1330864.00;4.44;2328.70;145056.00;0.48;251.29;;;;;13.70;1.00;;;;;;2260035;61;2017;-89
2022/03/14 01:06:04;1180093.00;3.93;2054.27;158200.00;0.53;273.94;;;;;13.30;1.00;;;;;;2260166;61;1419;-87
2022/03/14 01:08:31;1352871.00;4.51;2369.20;175787.00;0.59;304.23;;;;;13.00;1.00;;;;;;2260153;61;1056;-88
2022/03/14 01:10:58;636350.00;2.12;1097.03;100713.00;0.34;174.80;;;;;12.60;1.00;;;;;;2282872;56;3786;-87
2022/03/14 01:13:25;435330.00;1.45;750.55;69006.00;0.23;120.04;;;;;12.20;1.00;;;;;;2272230;61;1612;-88
2022/03/14 01:15:54;428400.00;1.43;738.63;85579.00;0.29;148.67;;;;;11.60;1.00;;;;;;2272178;61;1291;-87
2022/03/14 01:18:21;346907.00;1.16;598.55;83724.00;0.28;145.47;;;;;11.50;1.00;;;;;;2272184;61;872;-88
2022/03/14 01:20:49;529282.00;1.76;912.25;107296.00;0.36;186.16;;;;;11.50;1.00;;;;;;2272228;61;935;-87
2022/03/14 01:23:16;635399.00;2.12;1095.38;187446.00;0.62;324.31;;;;;11.30;1.00;;;;;;2272102;61;2005;-88
2022/03/14 01:25:45;480554.00;1.60;828.35;92535.00;0.31;160.68;;;;;11.30;1.00;;;;;;2272114;61;1314;-88
2022/03/14 01:28:13;380965.00;1.27;657.08;91483.00;0.30;158.87;;;;;11.50;1.00;;;;;;2272140;61;1068;-87
2022/03/14 01:30:41;582579.00;1.94;1004.15;78322.00;0.26;136.14;;;;;11.40;1.00;;;;;;2272176;61;1739;-88
2022/03/14 01:33:09;375106.00;1.25;647.01;103319.00;0.34;179.30;;;;;11.60;1.00;;;;;;2272089;61;1240;-87
2022/03/14 01:35:37;310159.00;1.03;535.38;91411.00;0.30;158.74;;;;;11.90;1.00;;;;;;2272168;61;1399;-87
2022/03/14 01:38:04;312163.00;1.04;538.83;89637.00;0.30;155.68;;;;;12.10;1.00;;;;;;2272168;61;1393;-89
2022/03/14 01:40:31;300557.00;1.00;518.88;89073.00;0.30;154.71;;;;;12.20;1.00;;;;;;2272103;61;1113;-87
2022/03/14 01:42:59;337073.00;1.12;581.64;89111.00;0.30;154.77;;;;;12.50;1.00;;;;;;2272159;61;2004;-87
2022/03/14 01:45:26;321353.00;1.07;554.62;90452.00;0.30;157.09;;;;;12.50;1.00;;;;;;2272621;61;1405;-88
2022/03/14 01:47:53;699229.00;2.33;1205.90;134179.00;0.45;232.54;;;;;12.50;1.00;;;;;;2272808;61;1647;-87
2022/03/14 01:50:23;437542.00;1.46;754.36;135243.00;0.45;234.37;;;;;12.50;1.00;;;;;;2272879;61;997;-87
2022/03/14 01:52:50;400769.00;1.34;691.13;82304.00;0.27;143.02;;;;;12.70;1.00;;;;;;2272792;61;1587;-87
2022/03/14 01:55:18;431178.00;1.44;743.41;71343.00;0.24;124.08;;;;;13.00;1.00;;;;;;2272771;61;1349;-88
2022/03/14 01:57:46;242415.00;0.81;418.91;80261.00;0.27;139.49;;;;;13.20;1.00;;;;;;2272787;61;1609;-90
2022/03/14 02:00:14;55162.00;0.18;96.11;0.00;0.00;0.62;;;;;13.30;1.00;;;;;;2272783;61;1632;-88
2022/03/14 02:02:41;284062.00;0.95;490.52;0.00;0.00;0.62;;;;;13.50;1.00;;;;;;2272801;61;1919;-89
2022/03/14 02:05:09;160596.00;0.54;278.07;0.00;0.00;0.62;;;;;13.70;1.00;;;;;;2272785;61;1649;-87
2022/03/14 02:07:38;344113.00;1.15;593.74;0.00;0.00;0.62;;;;;13.70;1.00;;;;;;2272797;61;1019;-88
2022/03/14 02:10:05;199589.00;0.67;345.22;0.00;0.00;0.62;;;;;13.60;1.00;;;;;;2272675;61;1093;-88
2022/03/14 02:12:32;73228.00;0.24;127.34;0.00;0.00;0.62;;;;;13.50;1.00;;;;;;2272738;61;1102;-88
2022/03/14 02:17:33;98829.00;0.33;171.55;0.00;0.00;0.62;;;;;13.20;1.00;;;;;;2266229;61;1423;-89
2022/03/14 02:42:24;786647.00;2.62;1357.85;94495.00;0.31;164.07;;;;;12.60;1.00;;;;;;2266891;61;1945;-90
2022/03/14 03:02:25;727121.00;2.42;1254.30;97976.00;0.33;170.08;;;;;12.30;1.00;;;;;;2267202;61;1948;-89
2022/03/14 03:04:52;252693.00;0.84;436.58;86291.00;0.29;149.90;;;;;12.20;1.00;;;;;;2265078;61;1222;-89
2022/03/14 03:07:19;282248.00;0.94;487.40;90045.00;0.30;156.39;;;;;12.20;1.00;;;;;;2264931;61;1773;-88
2022/03/14 03:14:45;583619.00;1.95;1005.94;87278.00;0.29;151.61;;;;;11.90;1.00;;;;;;2266079;61;1350;-88
2022/03/14 03:19:47;653799.00;2.18;1127.21;149289.00;0.50;258.58;;;;;12.70;1.00;;;;;;2267003;61;1210;-86
2022/03/14 03:24:43;502341.00;1.67;865.85;86042.00;0.29;149.47;;;;;12.70;1.00;;;;;;2266014;61;1431;-91
2022/03/14 03:27:10;514096.00;1.71;886.10;84412.00;0.28;146.66;;;;;12.80;1.00;;;;;;2283299;40;3590;-87
2022/03/14 03:32:10;755356.00;2.52;1303.37;88314.00;0.29;153.40;;;;;12.50;1.00;;;;;;2284687;56;3646;-90
2022/03/14 03:34:37;356482.00;1.19;615.00;82377.00;0.27;143.14;;;;;12.70;1.00;;;;;;2268201;61;1392;-87
2022/03/14 03:37:06;395598.00;1.32;682.24;85239.00;0.28;148.09;;;;;13.00;1.00;;;;;;2268432;61;916;-89
2022/03/14 03:39:33;426451.00;1.42;735.28;95873.00;0.32;166.45;;;;;13.50;1.00;;;;;;2268347;61;991;-90
2022/03/14 03:49:26;120434624.00;401.45;70764064.00;85663.00;0.29;148.82;;;;;13.40;1.00;;;;;;2287838;40;3445;-89
2022/03/14 03:56:53;935116.00;3.12;1617.88;113402.00;0.38;196.70;;;;;13.50;1.00;;;;;;2269820;61;1376;-88
2022/03/14 03:59:20;911912.00;3.04;1577.05;135426.00;0.45;234.69;;;;;13.50;1.00;;;;;;2268255;61;1511;-90
2022/03/14 04:06:47;2059247.00;6.86;3746.70;81836.00;0.27;142.21;;;;;13.40;1.00;;;;;;2269639;61;1160;-89
2022/03/14 04:09:15;629756.00;2.10;1085.63;74300.00;0.25;129.19;;;;;13.60;1.00;;;;;;2268056;61;1103;-88
2022/03/14 04:11:42;686054.00;2.29;1183.06;87241.00;0.29;151.54;;;;;13.60;1.00;;;;;;2284921;56;3767;-87
2022/03/14 04:14:11;606536.00;2.02;1045.51;84006.00;0.28;145.96;;;;;13.20;1.00;;;;;;2272301;61;1408;-88
2022/03/14 04:16:41;699387.00;2.33;1206.18;85406.00;0.28;148.37;;;;;13.10;1.00;;;;;;2272206;61;1120;-88
2022/03/14 04:19:08;849181.00;2.83;1467.03;114077.00;0.38;197.86;;;;;13.20;1.00;;;;;;2272317;61;1206;-90
2022/03/14 04:21:35;856954.00;2.86;1480.64;100110.00;0.33;173.76;;;;;13.10;1.00;;;;;;2272360;61;913;-91
2022/03/14 04:24:06;803343.00;2.68;1386.95;108626.00;0.36;188.46;;;;;12.80;1.00;;;;;;2272632;55;3717;-89
2022/03/14 04:26:33;121307864.00;404.36;72315968.00;91016.00;0.30;158.06;;;;;12.70;1.00;;;;;;2268209;61;1826;-88
2022/03/14 04:29:00;339235.00;1.13;585.36;82995.00;0.28;144.21;;;;;12.40;1.00;;;;;;2279002;55;3795;-88
2022/03/14 04:31:28;346469.00;1.15;597.79;86695.00;0.29;150.60;;;;;12.30;1.00;;;;;;2272276;61;2177;-90
2022/03/14 04:33:57;723798.00;2.41;1248.53;112803.00;0.38;195.67;;;;;12.60;1.00;;;;;;2272125;61;1365;-89
2022/03/14 04:36:24;765957.00;2.55;1321.82;118114.00;0.39;204.83;;;;;12.90;1.00;;;;;;2272163;61;1466;-89
2022/03/14 04:38:50;804218.00;2.68;1388.48;80979.00;0.27;140.73;;;;;13.10;1.00;;;;;;2272230;61;1563;-89
2022/03/14 04:43:47;719719.00;2.40;1241.45;68982.00;0.23;120.00;;;;;13.20;1.00;;;;;;2269950;61;1974;-89
2022/03/14 04:46:14;117354896.00;391.18;65468404.00;89363.00;0.30;155.21;;;;;13.20;1.00;;;;;;2268131;61;1649;-89
2022/03/14 04:48:44;415577.00;1.39;716.59;93544.00;0.31;162.43;;;;;13.10;1.00;;;;;;2268213;61;1067;-89
2022/03/14 04:51:11;453883.00;1.51;782.46;90498.00;0.30;157.17;;;;;13.00;1.00;;;;;;2268211;61;1075;-87
2022/03/14 04:53:38;330584.00;1.10;570.49;71522.00;0.24;124.39;;;;;12.80;1.00;;;;;;2268161;61;1590;-88
2022/03/14 04:58:34;780271.00;2.60;1346.74;116314.00;0.39;201.72;;;;;12.20;1.00;;;;;;2266892;61;1203;-88
2022/03/14 05:01:02;463820.00;1.55;799.56;79539.00;0.27;138.24;;;;;12.10;1.00;;;;;;2264197;61;1043;-87
2022/03/14 05:03:29;367183.00;1.22;633.39;86351.00;0.29;150.01;;;;;12.20;1.00;;;;;;2275200;55;3596;-89
2022/03/14 05:05:57;463434.00;1.54;798.89;97514.00;0.33;169.28;;;;;12.50;1.00;;;;;;2272767;61;1652;-87
2022/03/14 05:08:24;465850.00;1.55;803.05;93987.00;0.31;163.19;;;;;12.30;1.00;;;;;;2272786;61;975;-88
2022/03/14 05:10:51;638524.00;2.13;1100.79;79207.00;0.26;137.67;;;;;12.50;1.00;;;;;;2272824;61;801;-90
2022/03/14 05:13:20;401524.00;1.34;692.43;95692.00;0.32;166.14;;;;;12.80;1.00;;;;;;2272818;61;1012;-88
2022/03/14 05:15:47;337571.00;1.13;582.50;83357.00;0.28;144.84;;;;;12.90;1.00;;;;;;2272748;61;1654;-88
2022/03/14 05:18:14;355976.00;1.19;614.13;90075.00;0.30;156.44;;;;;13.10;1.00;;;;;;2272763;61;1598;-89
2022/03/14 05:20:41;397624.00;1.33;685.72;83074.00;0.28;144.35;;;;;13.40;1.00;;;;;;2272760;61;1071;-89
2022/03/14 05:23:09;541748.00;1.81;933.74;89363.00;0.30;155.21;;;;;13.30;1.00;;;;;;2272700;61;1998;-88
2022/03/14 05:25:36;353672.00;1.18;610.17;80840.00;0.27;140.49;;;;;12.80;1.00;;;;;;2272735;61;1418;-88
2022/03/14 05:30:33;974836.00;3.25;1687.95;116487.00;0.39;202.02;;;;;12.20;1.00;;;;;;2265626;61;1409;-88
2022/03/14 05:33:00;344657.00;1.15;594.68;80586.00;0.27;140.05;;;;;12.30;1.00;;;;;;2263822;61;1072;-89
2022/03/14 05:35:28;363190.00;1.21;626.53;93244.00;0.31;161.91;;;;;12.40;1.00;;;;;;2263948;61;1436;-88
2022/03/14 05:40:26;710314.00;2.37;1225.13;97772.00;0.33;169.73;;;;;12.30;1.00;;;;;;2269716;61;1441;-88
2022/03/14 05:42:53;353591.00;1.18;610.03;85262.00;0.28;148.13;;;;;12.50;1.00;;;;;;2267988;61;2006;-88
2022/03/14 05:47:51;565199.00;1.88;974.17;83767.00;0.28;145.54;;;;;12.20;1.00;;;;;;2265491;61;1401;-89
2022/03/14 05:50:19;290321.00;0.97;501.28;76052.00;0.25;132.22;;;;;12.50;1.00;;;;;;2263953;61;1125;-89
2022/03/14 05:52:46;294836.00;0.98;509.04;100098.00;0.33;173.74;;;;;12.50;1.00;;;;;;2263859;61;1242;-87
2022/03/14 05:55:13;455053.00;1.52;784.47;75757.00;0.25;131.71;;;;;12.50;1.00;;;;;;2278041;55;3753;-87
2022/03/14 05:57:42;361266.00;1.20;623.22;86071.00;0.29;149.52;;;;;12.80;1.00;;;;;;2268021;61;1010;-89
2022/03/14 06:00:10;294424.00;0.98;508.33;78375.00;0.26;136.23;;;;;13.00;1.00;;;;;;2267970;61;1145;-87
2022/03/14 06:02:38;268112.00;0.89;463.10;82839.00;0.28;143.94;;;;;12.90;1.00;;;;;;2267905;61;1070;-87
2022/03/14 06:05:05;395552.00;1.32;682.16;116982.00;0.39;202.88;;;;;12.30;1.00;;;;;;2267933;61;1994;-88
2022/03/14 06:07:33;314036.00;1.05;542.05;85997.00;0.29;149.40;;;;;12.10;1.00;;;;;;2288235;40;3749;-85
2022/03/14 06:10:00;376225.00;1.25;648.94;88025.00;0.29;152.90;;;;;11.90;1.00;;;;;;2272471;61;1701;-86
2022/03/14 06:12:28;362575.00;1.21;625.47;82534.00;0.28;143.41;;;;;12.10;1.00;;;;;;2271922;61;1001;-86
2022/03/14 06:14:58;445982.00;1.49;768.87;84828.00;0.28;147.38;;;;;12.30;1.00;;;;;;2272047;61;1779;-88
2022/03/14 06:17:25;391002.00;1.30;674.34;86391.00;0.29;150.08;;;;;12.40;1.00;;;;;;2271900;61;922;-86
2022/03/14 06:19:53;298319.00;0.99;515.03;85274.00;0.28;148.15;;;;;12.30;1.00;;;;;;2272051;61;904;-88
2022/03/14 06:22:21;299885.00;1.00;517.72;82620.00;0.28;143.56;;;;;12.60;1.00;;;;;;2271919;61;941;-88
2022/03/14 06:24:49;471894.00;1.57;813.45;88676.00;0.30;154.02;;;;;12.70;1.00;;;;;;2271910;61;1915;-87
2022/03/14 06:27:16;272350.00;0.91;470.38;81801.00;0.27;142.15;;;;;12.50;1.00;;;;;;2271987;61;1756;-88
2022/03/14 06:29:43;530855.00;1.77;914.96;79141.00;0.26;137.55;;;;;12.60;1.00;;;;;;2271963;61;1026;-88
2022/03/14 06:32:13;424837.00;1.42;732.51;79951.00;0.27;138.95;;;;;12.60;1.00;;;;;;2272433;61;1003;-87
2022/03/14 06:34:41;380025.00;1.27;655.47;81109.00;0.27;140.95;;;;;12.80;1.00;;;;;;2272446;61;2328;-89
2022/03/14 06:37:08;338396.00;1.13;583.92;77495.00;0.26;134.71;;;;;12.80;1.00;;;;;;2272500;61;1000;-89
2022/03/14 06:39:36;303450.00;1.01;523.85;89460.00;0.30;155.38;;;;;13.00;1.00;;;;;;2272520;61;1677;-87
2022/03/14 06:42:04;351504.00;1.17;606.45;87842.00;0.29;152.58;;;;;13.00;1.00;;;;;;2272535;61;1129;-89
2022/03/14 06:44:31;396766.00;1.32;684.25;96485.00;0.32;167.50;;;;;12.80;1.00;;;;;;2272604;61;1908;-87
2022/03/14 06:46:58;384683.00;1.28;663.47;102183.00;0.34;177.34;;;;;12.50;1.00;;;;;;2272588;61;1146;-88
2022/03/14 06:49:26;208869.00;0.70;361.19;92103.00;0.31;159.94;;;;;12.70;1.00;;;;;;2272556;61;1042;-88
2022/03/14 06:51:53;174352.00;0.58;301.76;99931.00;0.33;173.45;;;;;12.80;1.00;;;;;;2272555;61;1671;-87
2022/03/14 06:54:20;434729.00;1.45;749.52;81337.00;0.27;141.35;;;;;12.80;1.00;;;;;;2272506;61;1643;-90
2022/03/14 06:56:48;309523.00;1.03;534.29;62051.00;0.21;108.02;;;;;12.90;1.00;;;;;;2272556;61;960;-88
2022/03/14 06:59:16;214774.00;0.72;371.35;63667.00;0.21;110.82;;;;;13.00;1.00;;;;;;2272596;61;1523;-87
2022/03/14 07:01:42;298161.00;0.99;514.76;78520.00;0.26;136.48;;;;;13.10;1.00;;;;;;2272562;61;1021;-88
2022/03/14 07:04:10;253.00;0.00;1.06;0.00;0.00;0.62;;;;;13.00;1.00;;;;;;2272546;61;1927;-88
2022/03/14 07:06:38;179013.00;0.60;309.79;0.00;0.00;0.62;;;;;13.00;1.00;;;;;;2272567;61;1002;-87
2022/03/14 07:09:05;49945.00;0.17;87.09;0.00;0.00;0.62;;;;;13.00;1.00;;;;;;2272555;61;1521;-87
2022/03/14 07:11:33;117659344.00;392.20;65979712.00;71095.00;0.24;123.65;;;;;13.20;1.00;;;;;;2272530;61;1433;-88
2022/03/14 07:14:00;271336.00;0.90;468.64;87488.00;0.29;151.97;;;;;13.30;1.00;;;;;;2272526;61;1305;-86
2022/03/14 07:16:27;250119.00;0.83;432.16;79111.00;0.26;137.50;;;;;13.60;1.00;;;;;;2272598;61;1575;-87
2022/03/14 07:18:54;103736.00;0.35;180.02;0.00;0.00;0.62;;;;;14.10;1.00;;;;;;2272607;61;896;-89
2022/03/14 07:21:21;114392.00;0.38;198.41;0.00;0.00;0.62;;;;;14.30;1.00;;;;;;2272513;61;1009;-87
2022/03/14 07:23:53;91207.00;0.30;158.39;0.00;0.00;0.62;;;;;14.40;1.00;;;;;;2272477;61;1914;-87
2022/03/14 07:26:20;13131.00;0.04;23.37;0.00;0.00;0.62;;;;;14.60;1.00;;;;;;2272483;61;1009;-87
2022/03/14 07:28:48;182359.00;0.61;315.55;32291.00;0.11;56.55;;;;;14.40;1.00;;;;;;2272473;61;1485;-88
2022/03/14 07:31:15;88362.00;0.29;153.48;0.00;0.00;0.62;;;;;14.40;1.00;;;;;;2272415;61;1044;-88
2022/03/14 07:33:43;61072.00;0.20;106.33;0.00;0.00;0.62;;;;;14.20;1.00;;;;;;2272528;61;979;-88
2022/03/14 07:36:10;70613.00;0.24;122.82;0.00;0.00;0.62;;;;;14.30;1.00;;;;;;2272492;61;1301;-87
2022/03/14 07:38:37;17448.00;0.06;30.85;0.00;0.00;0.62;;;;;14.30;1.00;;;;;;2272525;61;1678;-88
2022/03/14 07:41:05;52860.00;0.18;92.13;0.00;0.00;0.62;;;;;14.60;1.00;;;;;;2272493;61;1346;-87
2022/03/14 07:43:33;15322.00;0.05;27.17;0.00;0.00;0.62;;;;;14.80;1.00;;;;;;2272352;61;2022;-88
2022/03/14 07:46:01;143490.00;0.48;248.59;4580.00;0.02;8.56;;;;;15.20;1.00;;;;;;2272447;61;1492;-87
2022/03/14 07:48:28;82953.00;0.28;144.14;0.00;0.00;0.62;;;;;15.20;1.00;;;;;;2272379;61;1194;-87
2022/03/14 07:50:56;61363.00;0.20;106.83;0.00;0.00;0.62;;;;;15.10;1.00;;;;;;2272494;61;932;-89
2022/03/14 07:53:23;36629.00;0.12;64.06;0.00;0.00;0.62;;;;;14.60;1.00;;;;;;2272432;61;1042;-88
2022/03/14 07:55:51;235612.00;0.79;407.20;0.00;0.00;0.62;;;;;14.50;1.00;;;;;;2272256;61;1421;-88
2022/03/14 07:58:20;71681.00;0.24;124.67;0.00;0.00;0.62;;;;;14.60;1.00;;;;;;2272442;61;1116;-87
2022/03/14 08:00:47;168636.00;0.56;291.92;91703.00;0.31;159.25;;;;;15.30;1.00;;;;;;2272389;61;931;-87
2022/03/14 08:03:15;291378.00;0.97;503.10;88371.00;0.29;153.49;;;;;16.00;1.00;;;;;;2272336;61;1075;-87
2022/03/14 08:05:44;179991.00;0.60;311.47;58768.00;0.20;102.35;;;;;16.20;1.00;;;;;;2272354;61;1928;-88
2022/03/14 08:08:11;170400.00;0.57;294.96;82461.00;0.27;143.29;;;;;15.50;1.00;;;;;;2272166;61;1639;-87
2022/03/14 08:10:41;0.00;0.00;0.62;0.00;0.00;0.62;;;;;15.40;1.00;;;;;;2272369;61;1125;-88
2022/03/14 08:13:08;0.00;0.00;0.62;0.00;0.00;0.62;;;;;14.90;1.00;;;;;;2272372;61;1220;-87
2022/03/14 08:15:37;66611.00;0.22;115.90;0.00;0.00;0.62;;;;;14.90;1.00;;;;;;2272273;61;1392;-89
2022/03/14 08:18:07;28124.00;0.09;49.34;0.00;0.00;0.62;;;;;14.70;1.00;;;;;;2272373;61;1047;-88
2022/03/14 08:20:37;173500.00;0.58;300.30;87809.00;0.29;152.52;;;;;14.70;1.00;;;;;;2272301;61;1759;-88
2022/03/14 08:23:05;174307.00;0.58;301.69;84694.00;0.28;147.14;;;;;15.60;1.00;;;;;;2272319;61;1194;-88
2022/03/14 08:25:34;551749.00;1.84;950.97;158027.00;0.53;273.64;;;;;16.50;1.00;;;;;;2272240;61;1907;-87
2022/03/14 08:28:01;241928.00;0.81;418.07;78066.00;0.26;135.70;;;;;17.00;1.00;;;;;;2272293;61;1267;-87
2022/03/14 08:30:28;193352.00;0.64;334.48;93473.00;0.31;162.30;;;;;16.40;1.00;;;;;;2272419;61;988;-87
2022/03/14 08:32:59;171973.00;0.57;297.67;86675.00;0.29;150.57;;;;;16.20;1.00;;;;;;2272351;61;1081;-88
2022/03/14 08:35:27;361134.00;1.20;623.00;71893.00;0.24;125.03;;;;;16.20;1.00;;;;;;2272314;61;1467;-91
2022/03/14 08:37:55;251474.00;0.84;434.49;83897.00;0.28;145.77;;;;;16.20;1.00;;;;;;2272358;61;1069;-87
2022/03/14 08:40:25;34338.00;0.11;60.09;87415.00;0.29;151.84;;;;;16.00;1.00;;;;;;2272280;61;995;-89
2022/03/14 08:42:54;120078832.00;400.26;70138176.00;115639.00;0.39;200.56;;;;;15.40;1.00;;;;;;2272142;61;978;-87
2022/03/14 08:45:23;184493.00;0.61;319.23;77285.00;0.26;134.35;;;;;16.00;1.00;;;;;;2272186;61;1931;-87
2022/03/14 08:47:51;235268.00;0.78;406.61;92356.00;0.31;160.38;;;;;16.10;1.00;;;;;;2272290;61;1122;-86
2022/03/14 08:50:19;175918.00;0.59;304.46;74550.00;0.25;129.62;;;;;16.40;1.00;;;;;;2272261;61;1547;-87
2022/03/14 08:52:46;217712.00;0.73;376.41;88294.00;0.29;153.36;;;;;16.30;1.00;;;;;;2272203;61;907;-88
2022/03/14 08:55:14;281741.00;0.94;486.53;89721.00;0.30;155.83;;;;;16.40;1.00;;;;;;2271978;61;1345;-88
2022/03/14 08:57:41;210702.00;0.70;364.34;89120.00;0.30;154.79;;;;;16.40;1.00;;;;;;2272321;61;1015;-86
2022/03/14 09:00:10;184249.00;0.61;318.81;84757.00;0.28;147.25;;;;;16.40;1.00;;;;;;2272315;61;1006;-87
2022/03/14 09:02:37;194357.00;0.65;336.21;84402.00;0.28;146.64;;;;;16.60;1.00;;;;;;2272253;61;1521;-86
2022/03/14 09:05:05;249097.00;0.83;430.40;79732.00;0.27;138.57;;;;;16.80;1.00;;;;;;2272185;61;1988;-87
2022/03/14 09:07:33;185563.00;0.62;321.07;79219.00;0.26;137.69;;;;;16.60;1.00;;;;;;2272098;61;1602;-87
2022/03/14 09:10:03;248195.00;0.83;428.85;87263.00;0.29;151.58;;;;;15.30;1.00;;;;;;2272231;61;1094;-87
2022/03/14 09:12:33;395533.00;1.32;682.13;84514.00;0.28;146.83;;;;;14.20;1.00;;;;;;2272073;61;1769;-88
2022/03/14 09:15:01;366559.00;1.22;632.32;80578.00;0.27;140.04;;;;;14.00;1.00;;;;;;2272200;61;1526;-87
2022/03/14 09:17:29;323229.00;1.08;557.85;93549.00;0.31;162.44;;;;;13.80;1.00;;;;;;2272008;61;1616;-88
2022/03/14 09:19:56;233241.00;0.78;403.12;81048.00;0.27;140.85;;;;;13.90;1.00;;;;;;2272115;61;1508;-87
2022/03/14 09:22:23;277699.00;0.93;479.58;86561.00;0.29;150.37;;;;;13.90;1.00;;;;;;2272207;61;1604;-87
2022/03/14 09:24:52;255993.00;0.85;442.26;85125.00;0.28;147.89;;;;;14.30;1.00;;;;;;2271994;61;2010;-88
2022/03/14 09:27:19;212806.00;0.71;367.96;7779.00;0.03;14.10;;;;;15.00;1.00;;;;;;2271977;61;1660;-89
2022/03/14 09:29:46;86835.00;0.29;150.84;0.00;0.00;0.62;;;;;15.10;1.00;;;;;;2272085;61;1654;-89
2022/03/14 09:32:15;50081.00;0.17;87.33;0.00;0.00;0.62;;;;;15.60;1.00;;;;;;2271714;61;1510;-87
2022/03/14 09:34:43;92098.00;0.31;159.93;0.00;0.00;0.62;;;;;15.80;1.00;;;;;;2271939;61;1260;-87
2022/03/14 09:37:10;89607.00;0.30;155.63;0.00;0.00;0.62;;;;;15.90;1.00;;;;;;2272110;61;908;-86
2022/03/14 09:39:37;46646.00;0.16;81.39;0.00;0.00;0.62;;;;;15.70;1.00;;;;;;2272016;61;1067;-88
2022/03/14 09:42:11;0.00;0.00;0.62;0.00;0.00;0.62;;;;;15.70;1.00;;;;;;2272078;61;1039;-88
2022/03/14 09:44:43;301447.00;1.00;520.41;84943.00;0.28;147.57;;;;;15.40;1.00;;;;;;2271896;61;2001;-87
2022/03/14 09:47:11;281252.00;0.94;485.69;81708.00;0.27;141.99;;;;;15.20;1.00;;;;;;2272025;61;1043;-89
2022/03/14 09:49:40;280176.00;0.93;483.84;75062.00;0.25;130.51;;;;;15.00;1.00;;;;;;2272124;61;1078;-87
2022/03/14 09:52:09;339856.00;1.13;586.43;79725.00;0.27;138.56;;;;;15.20;1.00;;;;;;2272063;61;1085;-87
2022/03/14 09:54:37;205628.00;0.69;355.61;88006.00;0.29;152.86;;;;;15.30;1.00;;;;;;2272008;61;1288;-89
2022/03/14 09:57:06;130589.00;0.44;226.34;0.00;0.00;0.62;;;;;15.00;1.00;;;;;;2272066;61;985;-89
2022/03/14 09:59:35;57524.00;0.19;100.20;0.00;0.00;0.62;;;;;15.10;1.00;;;;;;2272021;61;1750;-88
2022/03/14 10:02:02;176639.00;0.59;305.70;83210.00;0.28;144.58;;;;;15.30;1.00;;;;;;2272077;61;1018;-88
2022/03/14 10:04:29;173045.00;0.58;299.51;83128.00;0.28;144.44;;;;;15.80;1.00;;;;;;2272047;61;1917;-88
2022/03/14 10:06:56;217110.00;0.72;375.37;72627.00;0.24;126.30;;;;;15.80;1.00;;;;;;2272786;61;1043;-88
2022/03/14 10:09:23;59184.00;0.20;103.07;0.00;0.00;0.62;;;;;15.80;1.00;;;;;;2272738;61;1042;-88
2022/03/14 10:11:50;0.00;0.00;0.62;0.00;0.00;0.62;;;;;15.60;1.00;;;;;;2272792;61;1113;-88
2022/03/14 10:14:19;0.00;0.00;0.62;0.00;0.00;0.62;;;;;15.40;1.00;;;;;;2272722;61;1391;-88
2022/03/14 10:16:47;26978.00;0.09;47.35;0.00;0.00;0.62;;;;;15.20;1.00;;;;;;2272691;61;2326;-88
2022/03/14 10:19:20;32093.00;0.11;56.21;0.00;0.00;0.62;;;;;15.30;1.00;;;;;;2272854;61;1148;-87
2022/03/14 10:21:51;491978.00;1.64;848.01;148421.00;0.49;257.09;;;;;15.40;1.00;;;;;;2272764;61;1080;-88
2022/03/14 10:24:22;95884.00;0.32;166.47;0.00;0.00;0.62;;;;;15.60;1.00;;;;;;2272604;61;1392;-88
2022/03/14 10:26:50;193899.00;0.65;335.42;104359.00;0.35;181.10;;;;;15.40;1.00;;;;;;2272800;61;1084;-88
2022/03/14 10:29:25;179891.00;0.60;311.30;95932.00;0.32;166.55;;;;;15.70;1.00;;;;;;2272582;61;1262;-87
2022/03/14 10:31:56;334979.00;1.12;578.04;109873.00;0.37;190.61;;;;;16.00;1.00;;;;;;2272657;61;1609;-88
2022/03/14 10:34:23;64680.00;0.22;112.57;0.00;0.00;0.62;;;;;16.00;1.00;;;;;;2272705;61;1365;-88
2022/03/14 10:36:54;30941.00;0.10;54.21;0.00;0.00;0.62;;;;;15.90;1.00;;;;;;2272790;61;1115;-88
2022/03/14 10:39:26;50057.00;0.17;87.28;0.00;0.00;0.62;;;;;15.30;1.00;;;;;;2272660;61;1042;-88
2022/03/14 10:42:04;123423.00;0.41;213.99;0.00;0.00;0.62;;;;;15.70;1.00;;;;;;2272611;61;1689;-89
2022/03/14 10:44:33;0.00;0.00;0.62;0.00;0.00;0.62;;;;;15.90;1.00;;;;;;2272607;61;2008;-88
2022/03/14 10:47:00;93605.00;0.31;162.53;0.00;0.00;0.62;;;;;15.80;1.00;;;;;;2272760;61;919;-87
2022/03/14 10:49:29;0.00;0.00;0.62;0.00;0.00;0.62;;;;;16.10;1.00;;;;;;2272720;61;1059;-87
2022/03/14 10:51:58;119249.00;0.40;206.79;27298.00;0.09;47.91;;;;;16.20;1.00;;;;;;2272612;61;999;-87
2022/03/14 10:54:25;82492.00;0.27;143.34;0.00;0.00;0.62;;;;;16.20;1.00;;;;;;2272604;61;1274;-88
2022/03/14 10:57:03;127830.00;0.43;221.59;0.00;0.00;0.62;;;;;16.00;1.00;;;;;;2272634;61;1446;-89
2022/03/14 10:59:37;137340.00;0.46;237.99;0.00;0.00;0.62;;;;;15.70;1.00;;;;;;2272653;61;998;-86
2022/03/14 11:02:06;86156.00;0.29;149.67;0.00;0.00;0.62;;;;;15.90;1.00;;;;;;2272578;61;1022;-87